Terminal Aerodrome Forecast
Issued by NWS

Home | Current Version | Previous Version | Text Only | Print | Product List | Glossary On
Versions: 1 2 3 4 5 6 7 8 9 10 11 12 13 14 15 16
000
FTAK31 PAJN 210100 AAA
TAFAKT
TAF AMD
PAKT 210144Z 2102/2124 16012G20KT P6SM -RA SCT025 BKN035 OVC050
      WS020/12035KT
      TEMPO 2102/2106 15008KT 5SM -RA BR SCT020 OVC030
     FM211200 14015G22KT 5SM -RA OVC030
     FM211800 13010KT P6SM -SHRA SCT025 BKN040
      AMD LTD TO CLD VIS AND WIND 2106/2115=

USA.gov is the U.S. government's official web portal to all federal, state and local government web resources and services.